createdAt,value
2022-10-29T00:00:00.359Z,987.1
2022-10-29T00:05:00.349Z,986.7
2022-10-29T00:10:00.353Z,986.7
2022-10-29T00:15:00.358Z,986.7
2022-10-29T00:20:00.439Z,986.4
2022-10-29T00:25:00.373Z,986.7
2022-10-29T00:30:00.381Z,987.1
2022-10-29T00:35:00.383Z,987.5
2022-10-29T00:40:00.390Z,987.5
2022-10-29T00:45:00.390Z,987.7
2022-10-29T00:50:00.396Z,987.7
2022-10-29T00:55:00.406Z,987.7
2022-10-29T01:00:00.468Z,987.7
2022-10-29T01:05:00.415Z,987.7
2022-10-29T01:10:00.422Z,988
2022-10-29T01:15:00.423Z,987.7
2022-10-29T01:20:00.419Z,987.5
2022-10-29T01:25:00.427Z,987.5
2022-10-29T01:30:00.433Z,988
2022-10-29T01:35:00.441Z,988
2022-10-29T01:40:00.444Z,987.5
2022-10-29T01:45:00.384Z,987.5
2022-10-29T01:50:00.236Z,987.5
2022-10-29T01:55:00.098Z,987.5
2022-10-29T02:05:01.124Z,987.5
2022-10-29T02:10:01.132Z,987.5
2022-10-29T02:15:01.131Z,987.5
2022-10-29T02:20:01.136Z,987.5
2022-10-29T02:25:01.191Z,987.5
2022-10-29T02:30:01.148Z,987.3
2022-10-29T02:35:01.154Z,987.5
2022-10-29T02:40:01.151Z,987.5
2022-10-29T02:45:01.159Z,987.5
2022-10-29T02:50:01.162Z,987.1
2022-10-29T02:55:01.173Z,987.1
2022-10-29T03:00:01.200Z,986.9
2022-10-29T03:05:01.179Z,987.1
2022-10-29T03:10:01.189Z,986.9
2022-10-29T03:15:01.186Z,986.9
2022-10-29T03:20:01.197Z,986.9
2022-10-29T03:25:01.205Z,986.7
2022-10-29T03:30:01.202Z,986.7
2022-10-29T03:35:01.221Z,986.7
2022-10-29T03:40:01.212Z,986.7
2022-10-29T03:45:01.223Z,986.7
2022-10-29T03:50:01.231Z,986.7
2022-10-29T03:55:01.236Z,986.4
2022-10-29T04:00:01.239Z,986.2
2022-10-29T04:05:01.245Z,986.7
2022-10-29T04:10:01.248Z,986.4
2022-10-29T04:15:01.262Z,986.4
2022-10-29T04:20:01.260Z,986.7
2022-10-29T04:30:01.315Z,986.7
2022-10-29T04:35:01.273Z,987.1
2022-10-29T04:40:01.277Z,987.3
2022-10-29T04:45:01.279Z,987.5
2022-10-29T04:50:01.376Z,987.7
2022-10-29T04:55:01.403Z,988
2022-10-29T05:00:01.492Z,988
2022-10-29T05:05:01.498Z,987.7
2022-10-29T05:10:01.406Z,987.7
2022-10-29T05:15:01.370Z,988
2022-10-29T05:20:01.316Z,987.5
2022-10-29T05:25:01.334Z,987.7
2022-10-29T05:30:01.326Z,988
2022-10-29T05:35:01.340Z,988
2022-10-29T05:40:01.475Z,988
2022-10-29T05:45:01.445Z,988.2
2022-10-29T05:50:01.443Z,988.2
2022-10-29T05:55:01.494Z,988.4
2022-10-29T06:00:01.355Z,988.4
2022-10-29T06:05:01.518Z,988.4
2022-10-29T06:10:01.475Z,988.4
2022-10-29T06:15:01.497Z,988.4
2022-10-29T06:20:01.484Z,988.6
2022-10-29T06:25:01.553Z,988.8
2022-10-29T06:30:01.392Z,988.6
2022-10-29T06:35:01.510Z,988.6
2022-10-29T06:40:01.394Z,988.6
2022-10-29T06:45:01.410Z,988.8
2022-10-29T06:50:01.407Z,988.8
2022-10-29T06:55:01.419Z,989
2022-10-29T07:00:05.644Z,988.8
2022-10-29T07:05:01.429Z,989.3
2022-10-29T07:10:01.425Z,989.3
2022-10-29T07:15:01.440Z,989.3
2022-10-29T07:20:01.441Z,989.3
2022-10-29T07:25:01.571Z,989.3
2022-10-29T07:30:01.452Z,989
2022-10-29T07:35:01.457Z,988.8
2022-10-29T07:40:01.458Z,988.6
2022-10-29T07:45:01.473Z,988.6
2022-10-29T07:50:00.151Z,988
2022-10-29T07:55:00.161Z,987.7
2022-10-29T08:00:00.169Z,986.2
2022-10-29T08:05:00.225Z,986.2
2022-10-29T08:10:00.244Z,986.4
2022-10-29T08:15:00.310Z,985.8
2022-10-29T08:20:00.248Z,985.4
2022-10-29T08:25:00.406Z,985.1
2022-10-29T08:30:00.218Z,984.5
2022-10-29T08:35:00.211Z,984.3
2022-10-29T08:40:00.205Z,983.6
2022-10-29T08:45:00.320Z,983.2
2022-10-29T08:50:00.371Z,982.7
2022-10-29T08:55:00.216Z,981.2
2022-10-29T09:00:00.382Z,981
2022-10-29T09:05:00.227Z,981
2022-10-29T09:10:00.241Z,981.4
2022-10-29T09:15:00.263Z,979.3
2022-10-29T09:20:00.252Z,981.4
2022-10-29T09:25:00.412Z,981.2
2022-10-29T09:30:00.274Z,979.9
2022-10-29T09:40:00.277Z,980.6
2022-10-29T09:45:00.261Z,980.6
2022-10-29T09:50:05.366Z,979.7
2022-10-29T09:55:00.272Z,979.3
2022-10-29T10:00:00.283Z,978
2022-10-29T10:05:00.287Z,976.7
2022-10-29T10:10:00.456Z,976.7
2022-10-29T10:15:00.358Z,976.4
2022-10-29T10:20:00.390Z,975.1
2022-10-29T10:25:00.432Z,974.3
2022-10-29T10:30:00.450Z,973
2022-10-29T10:35:00.453Z,971.9
2022-10-29T10:40:00.328Z,969.3
2022-10-29T10:45:00.346Z,968.6
2022-10-29T10:50:00.612Z,968.4
2022-10-29T10:55:00.341Z,967.5
2022-10-29T11:00:00.357Z,967.5
2022-10-29T11:05:03.529Z,967.7
2022-10-29T11:10:00.368Z,968
2022-10-29T11:15:00.363Z,965.6
2022-10-29T11:20:00.380Z,963.4
2022-10-29T11:25:00.390Z,964
2022-10-29T11:30:00.376Z,965.4
2022-10-29T11:35:00.389Z,962.3
2022-10-29T11:40:00.388Z,964.5
2022-10-29T11:45:00.400Z,962.7
2022-10-29T11:50:00.411Z,963
2022-10-29T11:55:00.402Z,963.8
2022-10-29T12:00:00.429Z,962.1
2022-10-29T12:05:00.427Z,964.9
2022-10-29T12:10:00.422Z,963.6
2022-10-29T12:15:00.422Z,961.4
2022-10-29T12:20:00.559Z,961.9
2022-10-29T12:25:00.432Z,961.9
2022-10-29T12:30:00.435Z,963
2022-10-29T12:35:00.446Z,961.9
2022-10-29T12:40:00.479Z,961
2022-10-29T12:45:00.466Z,962.7
2022-10-29T12:50:00.457Z,960.1
2022-10-29T12:55:00.462Z,961.4
2022-10-29T13:00:00.492Z,962.3
2022-10-29T13:05:00.447Z,961.7
2022-10-29T13:10:00.475Z,961
2022-10-29T13:15:00.487Z,961
2022-10-29T13:20:00.489Z,961
2022-10-29T13:25:00.476Z,963.2
2022-10-29T13:30:00.495Z,963.4
2022-10-29T13:35:00.511Z,962.3
2022-10-29T13:40:00.506Z,963.4
2022-10-29T13:45:00.490Z,963.6
2022-10-29T13:50:00.343Z,963.8
2022-10-29T13:55:00.204Z,964.7
2022-10-29T14:00:00.088Z,963.8
2022-10-29T14:05:00.123Z,964.5
2022-10-29T14:10:00.113Z,964.7
2022-10-29T14:15:00.113Z,965.6
2022-10-29T14:20:00.126Z,965.8
2022-10-29T14:25:00.122Z,966
2022-10-29T14:30:00.125Z,966.7
2022-10-29T14:35:00.171Z,967.7
2022-10-29T14:40:00.141Z,968.4
2022-10-29T14:45:00.138Z,969.3
2022-10-29T14:50:00.148Z,969.9
2022-10-29T14:55:00.149Z,970.8
2022-10-29T15:00:00.218Z,971
2022-10-29T15:05:04.627Z,971.4
2022-10-29T15:10:00.175Z,972.3
2022-10-29T15:15:00.213Z,973
2022-10-29T15:20:00.179Z,973.2
2022-10-29T15:25:00.280Z,973.8
2022-10-29T15:30:00.193Z,974
2022-10-29T15:35:00.198Z,974.5
2022-10-29T15:40:00.211Z,974.5
2022-10-29T15:45:00.287Z,974.3
2022-10-29T15:50:00.247Z,975.1
2022-10-29T15:55:00.252Z,975.6
2022-10-29T16:00:00.516Z,976
2022-10-29T16:05:00.289Z,976.4
2022-10-29T16:10:00.481Z,976.7
2022-10-29T16:15:00.275Z,977.3
2022-10-29T16:20:00.407Z,977.7
2022-10-29T16:25:00.265Z,977.5
2022-10-29T16:30:00.254Z,978
2022-10-29T16:35:00.264Z,978.8
2022-10-29T16:40:00.272Z,978.8
2022-10-29T16:45:00.277Z,979.3
2022-10-29T16:50:00.275Z,980.1
2022-10-29T16:55:00.296Z,980.1
2022-10-29T17:00:00.298Z,980.1
2022-10-29T17:05:00.299Z,980.1
2022-10-29T17:10:00.322Z,979.7
2022-10-29T17:15:00.313Z,979.7
2022-10-29T17:20:00.310Z,979.7
2022-10-29T17:25:00.340Z,980.1
2022-10-29T17:30:00.404Z,980.6
2022-10-29T17:35:00.338Z,981
2022-10-29T17:40:03.281Z,981
2022-10-29T17:45:00.342Z,981.4
2022-10-29T17:50:00.352Z,981.4
2022-10-29T17:55:00.360Z,981.4
2022-10-29T18:00:00.338Z,981.4
2022-10-29T18:05:00.369Z,981.4
2022-10-29T18:10:00.389Z,981.7
2022-10-29T18:15:00.384Z,981.7
2022-10-29T18:20:00.409Z,981.7
2022-10-29T18:25:00.399Z,981.9
2022-10-29T18:30:00.423Z,981.9
2022-10-29T18:35:00.416Z,982.3
2022-10-29T18:40:00.413Z,982.7
2022-10-29T18:45:00.417Z,982.5
2022-10-29T18:50:00.423Z,982.7
2022-10-29T18:55:00.475Z,982.7
2022-10-29T19:00:00.413Z,983
2022-10-29T19:05:00.417Z,983.2
2022-10-29T19:10:00.417Z,983.2
2022-10-29T19:15:00.415Z,983.2
2022-10-29T19:20:00.428Z,983
2022-10-29T19:25:00.433Z,982.7
2022-10-29T19:30:00.453Z,983
2022-10-29T19:35:00.456Z,983.2
2022-10-29T19:40:00.453Z,982.7
2022-10-29T19:45:00.449Z,982.7
2022-10-29T19:50:00.279Z,982.7
2022-10-29T19:55:00.160Z,982.7
2022-10-29T20:00:00.099Z,982.7
2022-10-29T20:05:00.106Z,982.7
2022-10-29T20:10:00.146Z,983
2022-10-29T20:15:00.128Z,983.2
2022-10-29T20:20:00.124Z,983.4
2022-10-29T20:25:00.138Z,983.6
2022-10-29T20:30:00.131Z,983.6
2022-10-29T20:35:00.140Z,983.6
2022-10-29T20:40:00.154Z,984
2022-10-29T20:45:00.163Z,984
2022-10-29T20:50:00.188Z,984
2022-10-29T20:55:00.155Z,984.5
2022-10-29T21:00:00.179Z,984.5
2022-10-29T21:05:00.166Z,984.7
2022-10-29T21:10:00.269Z,984.9
2022-10-29T21:15:00.264Z,984.5
2022-10-29T21:20:00.178Z,984.9
2022-10-29T21:25:00.185Z,985.1
2022-10-29T21:30:00.203Z,984.9
2022-10-29T21:35:00.177Z,984.9
2022-10-29T21:40:03.385Z,984.7
2022-10-29T21:45:00.232Z,984.3
2022-10-29T21:50:00.236Z,984.5
2022-10-29T21:55:00.237Z,984
2022-10-29T22:00:00.238Z,984.3
2022-10-29T22:05:00.234Z,984
2022-10-29T22:10:00.236Z,984
2022-10-29T22:15:00.243Z,984
2022-10-29T22:20:00.260Z,984
2022-10-29T22:25:00.263Z,984.3
2022-10-29T22:30:00.255Z,984.3
2022-10-29T22:35:00.254Z,984.3
2022-10-29T22:40:00.286Z,984.5
2022-10-29T22:45:00.291Z,984.5
2022-10-29T22:50:00.278Z,984.9
2022-10-29T22:55:00.278Z,984.9
2022-10-29T23:00:00.306Z,984.9
2022-10-29T23:05:00.291Z,984.9
2022-10-29T23:10:00.319Z,985.1
2022-10-29T23:15:00.300Z,985.4
2022-10-29T23:20:00.304Z,985.4
2022-10-29T23:25:00.322Z,985.4
2022-10-29T23:30:00.321Z,985.4
2022-10-29T23:35:00.339Z,985.4
2022-10-29T23:40:00.324Z,985.6
2022-10-29T23:45:05.196Z,985.6
2022-10-29T23:50:00.337Z,985.4
2022-10-29T23:55:00.342Z,985.6
